Time;durP1;ratioP1;P1;durP2;ratioP2;P2;SDS_P1;SDS_P2;PMS_P1;PMS_P2;Temp;Humidity;BMP_temperature;BMP_pressure;BME280_temperature;BME280_humidity;BME280_pressure;Samples;Min_cycle;Max_cycle;Signal;HPM_P1;HPM_P2
2019/12/31 00:00:03;;;;;;;26.7;24;;;;;;;;;;;;;
2019/12/31 00:02:28;;;;;;;29.1;26;;;;;;;;;;;;;
2019/12/31 00:04:53;;;;;;;26.4;23.8;;;;;;;;;;;;;
2019/12/31 00:07:18;;;;;;;26.1;23.4;;;;;;;;;;;;;
2019/12/31 00:09:43;;;;;;;26.3;23.6;;;;;;;;;;;;;
2019/12/31 00:13:55;;;;;;;25.7;23.1;;;;;;;;;;;;;
2019/12/31 00:14:34;;;;;;;26;23.4;;;;;;;;;;;;;
2019/12/31 00:16:59;;;;;;;26.7;24;;;;;;;;;;;;;
2019/12/31 00:19:24;;;;;;;25.9;23.3;;;;;;;;;;;;;
2019/12/31 00:21:49;;;;;;;26.9;24.1;;;;;;;;;;;;;
2019/12/31 00:24:14;;;;;;;25.1;22.6;;;;;;;;;;;;;
2019/12/31 00:26:39;;;;;;;25.2;22.6;;;;;;;;;;;;;
2019/12/31 00:29:04;;;;;;;26.2;23.4;;;;;;;;;;;;;
2019/12/31 00:31:29;;;;;;;27;24.3;;;;;;;;;;;;;
2019/12/31 00:33:54;;;;;;;27.7;24.9;;;;;;;;;;;;;
2019/12/31 00:36:19;;;;;;;27.6;24.7;;;;;;;;;;;;;
2019/12/31 00:38:45;;;;;;;26.5;23.7;;;;;;;;;;;;;
2019/12/31 00:41:10;;;;;;;26.1;23.3;;;;;;;;;;;;;
2019/12/31 00:43:35;;;;;;;25.1;22.5;;;;;;;;;;;;;
2019/12/31 00:46:00;;;;;;;25.6;22.7;;;;;;;;;;;;;
2019/12/31 00:48:25;;;;;;;24.9;22.4;;;;;;;;;;;;;
2019/12/31 00:50:50;;;;;;;25.2;22.6;;;;;;;;;;;;;
2019/12/31 00:53:15;;;;;;;25.6;23;;;;;;;;;;;;;
2019/12/31 00:55:40;;;;;;;25.9;23.2;;;;;;;;;;;;;
2019/12/31 00:58:05;;;;;;;25.7;23;;;;;;;;;;;;;
2019/12/31 01:00:31;;;;;;;24.7;22.1;;;;;;;;;;;;;
2019/12/31 01:02:56;;;;;;;24;21.5;;;;;;;;;;;;;
2019/12/31 01:05:21;;;;;;;25.7;23;;;;;;;;;;;;;
2019/12/31 01:07:46;;;;;;;25.3;22.7;;;;;;;;;;;;;
2019/12/31 01:10:11;;;;;;;24.7;22.2;;;;;;;;;;;;;
2019/12/31 01:12:36;;;;;;;24.5;21.8;;;;;;;;;;;;;
2019/12/31 01:15:01;;;;;;;24.4;21.9;;;;;;;;;;;;;
2019/12/31 01:17:26;;;;;;;23.2;20.8;;;;;;;;;;;;;
2019/12/31 01:19:51;;;;;;;24.5;21.9;;;;;;;;;;;;;
2019/12/31 01:22:17;;;;;;;23.5;21.1;;;;;;;;;;;;;
2019/12/31 01:24:42;;;;;;;23;20.7;;;;;;;;;;;;;
2019/12/31 01:27:07;;;;;;;23.5;21.1;;;;;;;;;;;;;
2019/12/31 01:29:32;;;;;;;24;21.4;;;;;;;;;;;;;
2019/12/31 01:31:57;;;;;;;22.8;20.4;;;;;;;;;;;;;
2019/12/31 01:34:22;;;;;;;21.7;19.5;;;;;;;;;;;;;
2019/12/31 01:36:47;;;;;;;22.4;20.1;;;;;;;;;;;;;
2019/12/31 01:39:15;;;;;;;21.8;19.6;;;;;;;;;;;;;
2019/12/31 01:41:40;;;;;;;23.2;20.8;;;;;;;;;;;;;
2019/12/31 01:44:05;;;;;;;23.9;21.4;;;;;;;;;;;;;
2019/12/31 01:46:30;;;;;;;22.4;20.1;;;;;;;;;;;;;
2019/12/31 01:48:55;;;;;;;23.6;21.1;;;;;;;;;;;;;
2019/12/31 01:51:20;;;;;;;22.6;20.4;;;;;;;;;;;;;
2019/12/31 01:53:45;;;;;;;22.7;20.3;;;;;;;;;;;;;
2019/12/31 01:56:10;;;;;;;22.4;20.1;;;;;;;;;;;;;
2019/12/31 01:58:35;;;;;;;22;19.8;;;;;;;;;;;;;
2019/12/31 02:01:12;;;;;;;21;18.9;;;;;;;;;;;;;
2019/12/31 02:05:51;;;;;;;21.3;19.1;;;;;;;;;;;;;
2019/12/31 02:08:16;;;;;;;20.2;18.2;;;;;;;;;;;;;
2019/12/31 02:10:41;;;;;;;20.1;18;;;;;;;;;;;;;
2019/12/31 02:13:06;;;;;;;20.7;18.6;;;;;;;;;;;;;
2019/12/31 02:15:31;;;;;;;20.7;18.6;;;;;;;;;;;;;
2019/12/31 02:17:56;;;;;;;20.4;18.3;;;;;;;;;;;;;
2019/12/31 02:20:21;;;;;;;20.2;18.2;;;;;;;;;;;;;
2019/12/31 02:22:46;;;;;;;20.5;18.3;;;;;;;;;;;;;
2019/12/31 02:27:49;;;;;;;18.4;16.6;;;;;;;;;;;;;
2019/12/31 02:30:14;;;;;;;20.2;18.2;;;;;;;;;;;;;
2019/12/31 02:32:39;;;;;;;19.8;17.8;;;;;;;;;;;;;
2019/12/31 02:35:04;;;;;;;19.6;17.6;;;;;;;;;;;;;
2019/12/31 02:39:54;;;;;;;19.3;17.4;;;;;;;;;;;;;
2019/12/31 02:42:19;;;;;;;19.4;17.5;;;;;;;;;;;;;
2019/12/31 02:44:44;;;;;;;20.1;18.1;;;;;;;;;;;;;
2019/12/31 02:47:10;;;;;;;19.4;17.5;;;;;;;;;;;;;
2019/12/31 02:49:35;;;;;;;20.2;18.1;;;;;;;;;;;;;
2019/12/31 02:52:00;;;;;;;17.9;16.2;;;;;;;;;;;;;
2019/12/31 02:54:25;;;;;;;17.9;16;;;;;;;;;;;;;
2019/12/31 02:56:50;;;;;;;18.6;16.8;;;;;;;;;;;;;
2019/12/31 02:59:16;;;;;;;17.9;16.1;;;;;;;;;;;;;
2019/12/31 03:01:41;;;;;;;18.2;16.4;;;;;;;;;;;;;
2019/12/31 03:04:06;;;;;;;19.1;17.2;;;;;;;;;;;;;
2019/12/31 03:06:31;;;;;;;18.1;16.4;;;;;;;;;;;;;
2019/12/31 03:08:56;;;;;;;19;17.1;;;;;;;;;;;;;
2019/12/31 03:11:21;;;;;;;17.8;16.1;;;;;;;;;;;;;
2019/12/31 03:13:46;;;;;;;18.3;16.5;;;;;;;;;;;;;
2019/12/31 03:16:11;;;;;;;18.5;16.6;;;;;;;;;;;;;
2019/12/31 03:18:36;;;;;;;18.8;16.9;;;;;;;;;;;;;
2019/12/31 03:21:02;;;;;;;18.2;16.4;;;;;;;;;;;;;
2019/12/31 03:23:27;;;;;;;18.6;16.7;;;;;;;;;;;;;
2019/12/31 03:25:52;;;;;;;17.9;16.1;;;;;;;;;;;;;
2019/12/31 03:28:17;;;;;;;17.9;16.2;;;;;;;;;;;;;
2019/12/31 03:30:42;;;;;;;18.1;16.3;;;;;;;;;;;;;
2019/12/31 03:33:07;;;;;;;18.1;16.4;;;;;;;;;;;;;
2019/12/31 03:35:32;;;;;;;17.9;16.2;;;;;;;;;;;;;
2019/12/31 03:37:57;;;;;;;18.3;16.5;;;;;;;;;;;;;
2019/12/31 03:40:22;;;;;;;17.6;15.8;;;;;;;;;;;;;
2019/12/31 03:42:48;;;;;;;17.6;15.9;;;;;;;;;;;;;
2019/12/31 03:45:13;;;;;;;18.8;16.9;;;;;;;;;;;;;
2019/12/31 03:47:38;;;;;;;18.9;17.1;;;;;;;;;;;;;
2019/12/31 03:50:03;;;;;;;18;16.2;;;;;;;;;;;;;
2019/12/31 03:52:28;;;;;;;18.2;16.4;;;;;;;;;;;;;
2019/12/31 03:54:53;;;;;;;19.6;17.7;;;;;;;;;;;;;
2019/12/31 03:57:18;;;;;;;19.3;17.4;;;;;;;;;;;;;
2019/12/31 03:59:43;;;;;;;18.1;16.2;;;;;;;;;;;;;
2019/12/31 04:02:30;;;;;;;18.5;16.7;;;;;;;1.23;87.4502;972.9767;;;;
2019/12/31 04:04:55;;;;;;;17.7;16;;;;;;;1.35;86.30273;973.0294;;;;
2019/12/31 04:07:30;;;;;;;18;16.3;;;;;;;1.25;86.64355;973.04;;;;
2019/12/31 04:09:48;;;;;;;17.8;16;;;;;;;1.18;87.30469;972.9958;;;;
2019/12/31 04:12:11;;;;;;;17.9;16.1;;;;;;;1.12;87.7207;973.0126;;;;
2019/12/31 04:14:36;;;;;;;18.3;16.5;;;;;;;1.06;88.28223;973.0037;;;;
2019/12/31 04:17:01;;;;;;;18.8;17;;;;;;;1.05;87.875;972.9604;;;;
2019/12/31 04:19:26;;;;;;;18.6;16.7;;;;;;;1.09;87.92773;972.9001;;;;
2019/12/31 04:21:51;;;;;;;18;16.3;;;;;;;1.01;87.75293;972.8072;;;;
2019/12/31 04:24:16;;;;;;;17.9;16.2;;;;;;;1.01;87.98926;972.8239;;;;
2019/12/31 04:26:41;;;;;;;18.3;16.5;;;;;;;1.01;86.99902;972.8158;;;;
2019/12/31 04:29:06;;;;;;;18.3;16.5;;;;;;;1.05;86.16406;972.8497;;;;
2019/12/31 04:31:31;;;;;;;17.5;15.7;;;;;;;1.1;86.81445;972.8649;;;;
2019/12/31 04:33:56;;;;;;;17.4;15.7;;;;;;;1.16;87.07324;972.8577;;;;
2019/12/31 04:36:21;;;;;;;16.7;15.1;;;;;;;1.08;86.42676;972.894;;;;
2019/12/31 04:38:46;;;;;;;16.7;15.1;;;;;;;;;;;;;
2019/12/31 04:41:11;;;;;;;15.9;14.3;;;;;;;;;;;;;
2019/12/31 04:43:36;;;;;;;15.9;14.3;;;;;;;;;;;;;
2019/12/31 04:46:02;;;;;;;16.4;14.8;;;;;;;;;;;;;
2019/12/31 04:48:27;;;;;;;16;14.4;;;;;;;;;;;;;
2019/12/31 04:50:52;;;;;;;15.3;13.8;;;;;;;;;;;;;
2019/12/31 04:53:17;;;;;;;15.3;13.8;;;;;;;;;;;;;
2019/12/31 04:55:42;;;;;;;14.8;13.3;;;;;;;;;;;;;
2019/12/31 04:58:07;;;;;;;15.2;13.7;;;;;;;;;;;;;
2019/12/31 05:00:32;;;;;;;14.6;13.1;;;;;;;;;;;;;
2019/12/31 05:05:23;;;;;;;14.6;13.1;;;;;;;;;;;;;
2019/12/31 05:07:47;;;;;;;13.9;12.5;;;;;;;;;;;;;
2019/12/31 05:10:12;;;;;;;13.7;12.3;;;;;;;;;;;;;
2019/12/31 05:12:38;;;;;;;14.1;12.7;;;;;;;;;;;;;
2019/12/31 05:15:03;;;;;;;13.6;12.3;;;;;;;;;;;;;
2019/12/31 05:17:28;;;;;;;12.6;11.4;;;;;;;;;;;;;
2019/12/31 05:19:53;;;;;;;13.3;12;;;;;;;;;;;;;
2019/12/31 05:22:18;;;;;;;13.2;11.9;;;;;;;;;;;;;
2019/12/31 05:24:43;;;;;;;11.9;10.7;;;;;;;;;;;;;
2019/12/31 05:27:08;;;;;;;12.1;11;;;;;;;;;;;;;
2019/12/31 05:29:33;;;;;;;12.6;11.3;;;;;;;;;;;;;
2019/12/31 05:31:58;;;;;;;12.7;11.5;;;;;;;;;;;;;
2019/12/31 05:34:23;;;;;;;12.6;11.4;;;;;;;;;;;;;
2019/12/31 05:36:48;;;;;;;12.2;11;;;;;;;;;;;;;
2019/12/31 05:39:13;;;;;;;12.4;11.2;;;;;;;;;;;;;
2019/12/31 05:41:38;;;;;;;12;10.8;;;;;;;;;;;;;
2019/12/31 05:44:03;;;;;;;12;10.8;;;;;;;;;;;;;
2019/12/31 05:46:29;;;;;;;11.6;10.5;;;;;;;;;;;;;
2019/12/31 05:48:54;;;;;;;11.9;10.7;;;;;;;;;;;;;
2019/12/31 05:51:19;;;;;;;12.2;10.8;;;;;;;;;;;;;
2019/12/31 05:53:44;;;;;;;11.8;10.7;;;;;;;;;;;;;
2019/12/31 05:56:09;;;;;;;11.4;10.3;;;;;;;;;;;;;
2019/12/31 05:58:34;;;;;;;12;10.9;;;;;;;;;;;;;
2019/12/31 06:00:59;;;;;;;12.1;11;;;;;;;;;;;;;
2019/12/31 06:03:24;;;;;;;11.9;10.8;;;;;;;;;;;;;
2019/12/31 06:05:49;;;;;;;12.1;11;;;;;;;;;;;;;
2019/12/31 06:08:14;;;;;;;12.9;11.6;;;;;;;;;;;;;
2019/12/31 06:10:40;;;;;;;11.8;10.7;;;;;;;;;;;;;
2019/12/31 06:13:05;;;;;;;12.4;11.2;;;;;;;;;;;;;
2019/12/31 06:15:30;;;;;;;12.8;11.6;;;;;;;;;;;;;
2019/12/31 06:17:55;;;;;;;12.7;11.5;;;;;;;;;;;;;
2019/12/31 06:20:20;;;;;;;12.2;11;;;;;;;;;;;;;
2019/12/31 06:22:45;;;;;;;13.9;12.4;;;;;;;;;;;;;
2019/12/31 06:25:13;;;;;;;14.5;13;;;;;;;;;;;;;
2019/12/31 06:27:39;;;;;;;15.1;13.5;;;;;;;;;;;;;
2019/12/31 06:30:04;;;;;;;15.4;13.2;;;;;;;;;;;;;
2019/12/31 06:32:29;;;;;;;14;12.6;;;;;;;;;;;;;
2019/12/31 06:34:54;;;;;;;13.6;11.9;;;;;;;;;;;;;
2019/12/31 06:37:19;;;;;;;12.8;11.5;;;;;;;;;;;;;
2019/12/31 06:39:44;;;;;;;13.3;12;;;;;;;;;;;;;
2019/12/31 06:42:09;;;;;;;13.3;11.9;;;;;;;;;;;;;
2019/12/31 06:44:35;;;;;;;13.5;12.1;;;;;;;;;;;;;
2019/12/31 06:47:00;;;;;;;14.9;13.3;;;;;;;;;;;;;
2019/12/31 06:49:25;;;;;;;14.1;12.7;;;;;;;;;;;;;
2019/12/31 06:51:50;;;;;;;13.8;12.4;;;;;;;;;;;;;
2019/12/31 06:54:15;;;;;;;13.5;12.1;;;;;;;;;;;;;
2019/12/31 06:56:40;;;;;;;13.2;11.8;;;;;;;;;;;;;
2019/12/31 06:59:05;;;;;;;11.9;10.7;;;;;;;;;;;;;
2019/12/31 07:01:30;;;;;;;12.3;11.1;;;;;;;;;;;;;
2019/12/31 07:03:55;;;;;;;11.7;10.5;;;;;;;;;;;;;
2019/12/31 07:06:20;;;;;;;11.9;10.7;;;;;;;;;;;;;
2019/12/31 07:08:45;;;;;;;11.5;10.3;;;;;;;;;;;;;
2019/12/31 07:11:10;;;;;;;12;10.8;;;;;;;;;;;;;
2019/12/31 07:13:36;;;;;;;11.6;10.4;;;;;;;;;;;;;
2019/12/31 07:16:01;;;;;;;11.2;10.1;;;;;;;;;;;;;
2019/12/31 07:25:44;;;;;;;11.3;10.2;;;;;;;;;;;;;
2019/12/31 07:28:07;;;;;;;11.1;10;;;;;;;;;;;;;
2019/12/31 07:30:32;;;;;;;11.2;10.1;;;;;;;;;;;;;
2019/12/31 07:32:57;;;;;;;11.1;10;;;;;;;;;;;;;
2019/12/31 07:35:22;;;;;;;11.1;10;;;;;;;;;;;;;
2019/12/31 07:37:47;;;;;;;10.8;9.7;;;;;;;;;;;;;
2019/12/31 07:40:12;;;;;;;10.6;9.4;;;;;;;;;;;;;
2019/12/31 07:42:37;;;;;;;10.4;9.4;;;;;;;;;;;;;
2019/12/31 07:45:02;;;;;;;11.7;10.3;;;;;;;;;;;;;
2019/12/31 07:47:27;;;;;;;10.2;9.2;;;;;;;;;;;;;
2019/12/31 07:49:52;;;;;;;10.7;9.6;;;;;;;;;;;;;
2019/12/31 07:52:17;;;;;;;9.5;8.6;;;;;;;;;;;;;
2019/12/31 07:54:43;;;;;;;10.1;9.1;;;;;;;;;;;;;
2019/12/31 07:57:08;;;;;;;10.9;9.8;;;;;;;;;;;;;
2019/12/31 07:59:33;;;;;;;10.9;9.8;;;;;;;;;;;;;
2019/12/31 08:01:58;;;;;;;11.3;10.1;;;;;;;;;;;;;
2019/12/31 08:04:23;;;;;;;10.9;9.8;;;;;;;;;;;;;
2019/12/31 08:06:48;;;;;;;10.5;9.5;;;;;;;;;;;;;
2019/12/31 08:09:13;;;;;;;10.3;9.3;;;;;;;;;;;;;
2019/12/31 08:11:38;;;;;;;11.2;9.7;;;;;;;;;;;;;
2019/12/31 08:14:03;;;;;;;11;9.9;;;;;;;;;;;;;
2019/12/31 08:16:28;;;;;;;10.3;9.3;;;;;;;;;;;;;
2019/12/31 08:18:54;;;;;;;11.5;10.2;;;;;;;;;;;;;
2019/12/31 08:21:19;;;;;;;10.7;9.7;;;;;;;;;;;;;
2019/12/31 08:23:44;;;;;;;10.8;9.7;;;;;;;;;;;;;
2019/12/31 08:26:09;;;;;;;10.4;9.4;;;;;;;;;;;;;
2019/12/31 08:28:34;;;;;;;10.6;9.4;;;;;;;;;;;;;
2019/12/31 08:30:59;;;;;;;10.7;9.6;;;;;;;;;;;;;
2019/12/31 08:33:24;;;;;;;10.3;9.2;;;;;;;;;;;;;
2019/12/31 08:35:49;;;;;;;10.5;9.3;;;;;;;;;;;;;
2019/12/31 08:38:15;;;;;;;10.1;9.1;;;;;;;;;;;;;
2019/12/31 08:40:40;;;;;;;10.5;9.4;;;;;;;;;;;;;
2019/12/31 08:43:05;;;;;;;9.6;8.6;;;;;;;;;;;;;
2019/12/31 08:45:30;;;;;;;9.9;8.6;;;;;;;;;;;;;
2019/12/31 08:47:55;;;;;;;10.2;9.2;;;;;;;;;;;;;
2019/12/31 08:50:20;;;;;;;10.1;9;;;;;;;;;;;;;
2019/12/31 08:52:45;;;;;;;10.1;9;;;;;;;;;;;;;
2019/12/31 08:55:11;;;;;;;10.5;9.4;;;;;;;;;;;;;
2019/12/31 09:00:01;;;;;;;10.4;9.2;;;;;;;;;;;;;
2019/12/31 09:02:26;;;;;;;10.2;9.2;;;;;;;;;;;;;
2019/12/31 09:04:51;;;;;;;11.1;9.2;;;;;;;;;;;;;
2019/12/31 09:07:16;;;;;;;10.8;9.3;;;;;;;;;;;;;
2019/12/31 09:09:41;;;;;;;10.5;9.5;;;;;;;;;;;;;
2019/12/31 09:12:06;;;;;;;10.6;9.5;;;;;;;;;;;;;
2019/12/31 09:14:31;;;;;;;10.4;9.3;;;;;;;;;;;;;
2019/12/31 09:16:57;;;;;;;10.9;9.8;;;;;;;;;;;;;
2019/12/31 09:19:22;;;;;;;11.5;10.3;;;;;;;;;;;;;
2019/12/31 09:21:47;;;;;;;11.7;10.5;;;;;;;;;;;;;
2019/12/31 09:24:12;;;;;;;12.1;10.8;;;;;;;;;;;;;
2019/12/31 09:26:37;;;;;;;12.2;10.9;;;;;;;;;;;;;
2019/12/31 09:29:02;;;;;;;11.4;10.2;;;;;;;;;;;;;
2019/12/31 09:31:27;;;;;;;11.5;10.3;;;;;;;;;;;;;
2019/12/31 09:33:52;;;;;;;11.1;10;;;;;;;;;;;;;
2019/12/31 09:36:17;;;;;;;11.7;10.5;;;;;;;;;;;;;
2019/12/31 09:38:43;;;;;;;11.3;10.1;;;;;;;;;;;;;
2019/12/31 09:41:08;;;;;;;11.1;9.9;;;;;;;;;;;;;
2019/12/31 09:43:33;;;;;;;12.1;10.7;;;;;;;;;;;;;
2019/12/31 09:45:58;;;;;;;11.7;10.4;;;;;;;;;;;;;
2019/12/31 09:48:23;;;;;;;10.9;9.8;;;;;;;;;;;;;
2019/12/31 09:50:48;;;;;;;11.3;10.2;;;;;;;;;;;;;
2019/12/31 09:53:13;;;;;;;11.2;10.1;;;;;;;;;;;;;
2019/12/31 09:55:38;;;;;;;11.7;10.5;;;;;;;;;;;;;
2019/12/31 09:58:03;;;;;;;11.3;10.2;;;;;;;;;;;;;
2019/12/31 10:00:28;;;;;;;11.3;10;;;;;;;;;;;;;
2019/12/31 10:02:53;;;;;;;11.3;10.1;;;;;;;;;;;;;
2019/12/31 10:05:18;;;;;;;11.2;10;;;;;;;;;;;;;
2019/12/31 10:07:44;;;;;;;10.7;9.6;;;;;;;;;;;;;
2019/12/31 10:10:09;;;;;;;11.4;10.3;;;;;;;;;;;;;
2019/12/31 10:12:34;;;;;;;11.7;10.5;;;;;;;;;;;;;
2019/12/31 10:14:59;;;;;;;11.2;10;;;;;;;;;;;;;
2019/12/31 10:17:24;;;;;;;11.3;10.2;;;;;;;;;;;;;
2019/12/31 10:19:49;;;;;;;11.5;10.4;;;;;;;;;;;;;
2019/12/31 10:22:14;;;;;;;11.4;10.3;;;;;;;;;;;;;
2019/12/31 10:24:39;;;;;;;11.9;10.7;;;;;;;;;;;;;
2019/12/31 10:27:04;;;;;;;11.7;10.5;;;;;;;;;;;;;
2019/12/31 10:29:29;;;;;;;11.9;10.7;;;;;;;;;;;;;
2019/12/31 10:31:54;;;;;;;11.6;10.5;;;;;;;;;;;;;
2019/12/31 10:34:19;;;;;;;11.8;10.6;;;;;;;;;;;;;
2019/12/31 10:36:45;;;;;;;11;9.9;;;;;;;;;;;;;
2019/12/31 10:39:10;;;;;;;11.6;10.4;;;;;;;;;;;;;
2019/12/31 10:41:35;;;;;;;12.2;10.3;;;;;;;;;;;;;
2019/12/31 10:44:00;;;;;;;11.2;10.1;;;;;;;;;;;;;
2019/12/31 10:46:25;;;;;;;11.1;10;;;;;;;;;;;;;
2019/12/31 10:48:50;;;;;;;11.6;10.4;;;;;;;;;;;;;
2019/12/31 10:51:15;;;;;;;10.6;9.5;;;;;;;;;;;;;
2019/12/31 10:53:40;;;;;;;11.2;10.1;;;;;;;;;;;;;
2019/12/31 10:56:05;;;;;;;10.1;9.1;;;;;;;;;;;;;
2019/12/31 10:58:30;;;;;;;10.2;9.2;;;;;;;;;;;;;
2019/12/31 11:00:56;;;;;;;10.8;9.7;;;;;;;;;;;;;
2019/12/31 11:03:21;;;;;;;11.4;10.2;;;;;;;;;;;;;
2019/12/31 11:05:46;;;;;;;11;9.4;;;;;;;;;;;;;
2019/12/31 11:08:11;;;;;;;11;9.3;;;;;;;;;;;;;
2019/12/31 11:10:36;;;;;;;10.3;9.3;;;;;;;;;;;;;
2019/12/31 11:13:01;;;;;;;12.3;9.9;;;;;;;;;;;;;
2019/12/31 11:15:26;;;;;;;10.1;9.1;;;;;;;;;;;;;
2019/12/31 11:17:51;;;;;;;10.5;9.4;;;;;;;;;;;;;
2019/12/31 11:20:16;;;;;;;10.8;9.6;;;;;;;;;;;;;
2019/12/31 11:22:42;;;;;;;14.2;11.9;;;;;;;;;;;;;
2019/12/31 11:25:07;;;;;;;10.7;9.5;;;;;;;;;;;;;
2019/12/31 11:27:32;;;;;;;13.9;11.6;;;;;;;;;;;;;
2019/12/31 11:29:57;;;;;;;10.7;9.6;;;;;;;;;;;;;
2019/12/31 11:32:22;;;;;;;11.3;10.1;;;;;;;;;;;;;
2019/12/31 11:34:47;;;;;;;12.7;10.6;;;;;;;;;;;;;
2019/12/31 11:37:12;;;;;;;10.5;9.5;;;;;;;;;;;;;
2019/12/31 11:39:37;;;;;;;10.1;9.1;;;;;;;;;;;;;
2019/12/31 11:42:02;;;;;;;11.1;9.6;;;;;;;;;;;;;
2019/12/31 11:44:28;;;;;;;10.7;9.4;;;;;;;;;;;;;
2019/12/31 11:46:53;;;;;;;10.7;9.4;;;;;;;;;;;;;
2019/12/31 11:49:18;;;;;;;12.6;9.6;;;;;;;;;;;;;
2019/12/31 11:51:43;;;;;;;9.8;8.6;;;;;;;;;;;;;
2019/12/31 11:54:08;;;;;;;11.7;8.8;;;;;;;;;;;;;
2019/12/31 11:56:33;;;;;;;12;8.8;;;;;;;;;;;;;
2019/12/31 11:58:58;;;;;;;9.5;8.5;;;;;;;;;;;;;
2019/12/31 12:01:23;;;;;;;9.6;8.6;;;;;;;;;;;;;
2019/12/31 12:03:48;;;;;;;10;8.4;;;;;;;;;;;;;
2019/12/31 12:06:13;;;;;;;8.9;8;;;;;;;;;;;;;
2019/12/31 12:08:38;;;;;;;9.5;8.2;;;;;;;;;;;;;
2019/12/31 12:11:04;;;;;;;9.1;8.2;;;;;;;;;;;;;
2019/12/31 12:13:29;;;;;;;9.2;8.3;;;;;;;;;;;;;
2019/12/31 12:15:54;;;;;;;8.8;7.8;;;;;;;;;;;;;
2019/12/31 12:18:19;;;;;;;9.2;8.2;;;;;;;;;;;;;
2019/12/31 12:20:44;;;;;;;9;7.9;;;;;;;;;;;;;
2019/12/31 12:23:09;;;;;;;9;8.1;;;;;;;;;;;;;
2019/12/31 12:25:34;;;;;;;10.1;8.2;;;;;;;;;;;;;
2019/12/31 12:27:59;;;;;;;9;8;;;;;;;;;;;;;
2019/12/31 12:30:24;;;;;;;9.2;8.2;;;;;;;;;;;;;
2019/12/31 12:32:50;;;;;;;9.1;8.1;;;;;;;;;;;;;
2019/12/31 12:35:15;;;;;;;10.6;8.6;;;;;;;;;;;;;
2019/12/31 12:37:40;;;;;;;8.5;7.6;;;;;;;;;;;;;
2019/12/31 12:40:05;;;;;;;8.9;8;;;;;;;;;;;;;
2019/12/31 12:42:30;;;;;;;9.8;8.1;;;;;;;;;;;;;
2019/12/31 12:44:55;;;;;;;15.4;13.2;;;;;;;;;;;;;
2019/12/31 12:47:20;;;;;;;11.6;10.1;;;;;;;;;;;;;
2019/12/31 12:49:45;;;;;;;12.4;10.5;;;;;;;;;;;;;
2019/12/31 12:52:10;;;;;;;11.2;9.9;;;;;;;;;;;;;
2019/12/31 12:54:35;;;;;;;10.5;8.9;;;;;;;;;;;;;
2019/12/31 12:57:01;;;;;;;9.4;7.8;;;;;;;;;;;;;
2019/12/31 12:59:26;;;;;;;10.7;8;;;;;;;;;;;;;
2019/12/31 13:03:40;;;;;;;9.6;8.1;;;;;;;;;;;;;
2019/12/31 13:04:25;;;;;;;8.7;7.8;;;;;;;;;;;;;
2019/12/31 13:06:41;;;;;;;9.5;8;;;;;;;;;;;;;
2019/12/31 13:09:06;;;;;;;9.1;8.1;;;;;;;;;;;;;
2019/12/31 13:11:31;;;;;;;9.2;7.9;;;;;;;;;;;;;
2019/12/31 13:13:56;;;;;;;9.2;8.2;;;;;;;;;;;;;
2019/12/31 13:16:21;;;;;;;9.5;8.5;;;;;;;;;;;;;
2019/12/31 13:18:46;;;;;;;10.1;8.5;;;;;;;;;;;;;
2019/12/31 13:21:11;;;;;;;10.4;9.3;;;;;;;;;;;;;
2019/12/31 13:23:36;;;;;;;9.6;8.6;;;;;;;;;;;;;
2019/12/31 13:26:02;;;;;;;10.3;8.4;;;;;;;;;;;;;
2019/12/31 13:28:27;;;;;;;9.9;8.9;;;;;;;;;;;;;
2019/12/31 13:30:52;;;;;;;9.9;8.9;;;;;;;;;;;;;
2019/12/31 13:33:17;;;;;;;10.1;9;;;;;;;;;;;;;
2019/12/31 13:35:42;;;;;;;10.5;8.9;;;;;;;;;;;;;
2019/12/31 13:38:07;;;;;;;9.9;8.9;;;;;;;;;;;;;
2019/12/31 13:40:32;;;;;;;10.2;9.2;;;;;;;;;;;;;
2019/12/31 13:42:57;;;;;;;9.8;8.8;;;;;;;;;;;;;
2019/12/31 13:45:22;;;;;;;10.3;9.2;;;;;;;;;;;;;
2019/12/31 13:47:47;;;;;;;10.4;9.4;;;;;;;;;;;;;
2019/12/31 13:50:12;;;;;;;10.4;9.3;;;;;;;;;;;;;
2019/12/31 13:52:37;;;;;;;9.7;8.7;;;;;;;;;;;;;
2019/12/31 13:55:02;;;;;;;10.6;9.2;;;;;;;;;;;;;
2019/12/31 13:57:28;;;;;;;10.1;9.1;;;;;;;;;;;;;
2019/12/31 13:59:53;;;;;;;11.7;9.5;;;;;;;;;;;;;
2019/12/31 14:02:18;;;;;;;11.2;9.5;;;;;;;;;;;;;
2019/12/31 14:04:43;;;;;;;11.7;10.5;;;;;;;;;;;;;
2019/12/31 14:07:08;;;;;;;10.8;9.7;;;;;;;;;;;;;
2019/12/31 14:09:33;;;;;;;10.5;9.5;;;;;;;;;;;;;
2019/12/31 14:11:58;;;;;;;11;9.2;;;;;;;;;;;;;
2019/12/31 14:14:23;;;;;;;9.7;8.7;;;;;;;;;;;;;
2019/12/31 14:16:49;;;;;;;10;8.9;;;;;;;;;;;;;
2019/12/31 14:19:14;;;;;;;11;9.8;;;;;;;;;;;;;
2019/12/31 14:21:39;;;;;;;10.8;9.7;;;;;;;;;;;;;
2019/12/31 14:24:04;;;;;;;10.5;9.4;;;;;;;;;;;;;
2019/12/31 14:26:29;;;;;;;10.8;8.9;;;;;;;;;;;;;
2019/12/31 14:28:54;;;;;;;10.3;9.2;;;;;;;;;;;;;
2019/12/31 14:31:19;;;;;;;10.7;9.6;;;;;;;;;;;;;
2019/12/31 14:33:44;;;;;;;11.7;9.4;;;;;;;;;;;;;
2019/12/31 14:36:09;;;;;;;11.3;9.6;;;;;;;;;;;;;
2019/12/31 14:38:34;;;;;;;11.2;10;;;;;;;;;;;;;
2019/12/31 14:40:59;;;;;;;12.5;10;;;;;;;;;;;;;
2019/12/31 14:43:25;;;;;;;14.5;12.6;;;;;;;;;;;;;
2019/12/31 14:45:50;;;;;;;16.8;14.4;;;;;;;;;;;;;
2019/12/31 14:48:15;;;;;;;16.9;14.8;;;;;;;;;;;;;
2019/12/31 14:50:40;;;;;;;17.7;15.1;;;;;;;;;;;;;
2019/12/31 14:53:05;;;;;;;17;15.2;;;;;;;;;;;;;
2019/12/31 14:55:30;;;;;;;18.8;15.3;;;;;;;;;;;;;
2019/12/31 14:57:55;;;;;;;18.6;16.6;;;;;;;;;;;;;
2019/12/31 15:00:20;;;;;;;19.5;17.4;;;;;;;;;;;;;
2019/12/31 15:02:45;;;;;;;19.2;17.2;;;;;;;;;;;;;
2019/12/31 15:05:10;;;;;;;18.6;16.6;;;;;;;;;;;;;
2019/12/31 15:07:50;;;;;;;19.4;17.4;;;;;;;;;;;;;
2019/12/31 15:10:01;;;;;;;19.4;17.4;;;;;;;;;;;;;
2019/12/31 15:12:26;;;;;;;18.6;16.6;;;;;;;;;;;;;
2019/12/31 15:14:51;;;;;;;19.5;17.4;;;;;;;;;;;;;
2019/12/31 15:17:16;;;;;;;18.5;16.5;;;;;;;;;;;;;
2019/12/31 15:19:41;;;;;;;19;17;;;;;;;;;;;;;
2019/12/31 15:22:07;;;;;;;19.5;17.5;;;;;;;;;;;;;
2019/12/31 15:24:32;;;;;;;20.3;17.7;;;;;;;;;;;;;
2019/12/31 15:26:57;;;;;;;19.9;17.8;;;;;;;;;;;;;
2019/12/31 15:29:22;;;;;;;18.7;16.8;;;;;;;;;;;;;
2019/12/31 15:31:47;;;;;;;19.2;17.2;;;;;;;;;;;;;
2019/12/31 15:34:12;;;;;;;18.8;16.8;;;;;;;;;;;;;
2019/12/31 15:36:47;;;;;;;17.9;16.1;;;;;;;;;;;;;
2019/12/31 15:39:02;;;;;;;19.3;17.3;;;;;;;;;;;;;
2019/12/31 15:41:27;;;;;;;21.7;18.8;;;;;;;;;;;;;
2019/12/31 15:46:17;;;;;;;22.6;19.9;;;;;;;;;;;;;
2019/12/31 15:48:44;;;;;;;22;19.7;;;;;;;;;;;;;
2019/12/31 15:51:07;;;;;;;21.3;19;;;;;;;;;;;;;
2019/12/31 15:53:32;;;;;;;21.4;19.1;;;;;;;;;;;;;
2019/12/31 15:55:57;;;;;;;21.5;19.3;;;;;;;;;;;;;
2019/12/31 15:58:23;;;;;;;21.5;19.2;;;;;;;;;;;;;
2019/12/31 16:00:48;;;;;;;20.9;18.7;;;;;;;;;;;;;
2019/12/31 16:03:13;;;;;;;22.1;19.7;;;;;;;;;;;;;
2019/12/31 16:05:38;;;;;;;20.9;18.7;;;;;;;;;;;;;
2019/12/31 16:08:03;;;;;;;23.2;20.7;;;;;;;;;;;;;
2019/12/31 16:10:28;;;;;;;27.7;24.5;;;;;;;;;;;;;
2019/12/31 16:12:53;;;;;;;38.4;27.2;;;;;;;;;;;;;
2019/12/31 16:16:07;;;;;;;37.5;28;;;;;;;4.53;75.12695;974.9619;;;;
2019/12/31 16:18:32;;;;;;;35.2;27.2;;;;;;;4.59;74.32031;974.9192;;;;
2019/12/31 16:20:57;;;;;;;26.5;22.7;;;;;;;4.64;73.55762;974.9341;;;;
2019/12/31 16:23:22;;;;;;;26.6;21.5;;;;;;;4.66;73.15039;974.9581;;;;
2019/12/31 16:25:47;;;;;;;32.1;25.1;;;;;;;4.57;74.19238;975.0672;;;;
2019/12/31 16:28:12;;;;;;;30.6;25.8;;;;;;;4.66;73.99023;975.1189;;;;
2019/12/31 16:30:38;;;;;;;25.9;23.1;;;;;;;4.56;74.37207;975.1803;;;;
2019/12/31 16:33:03;;;;;;;25.5;22.8;;;;;;;4.48;73.81348;975.1618;;;;
2019/12/31 16:35:28;;;;;;;24;21.6;;;;;;;4.46;74.51367;975.1746;;;;
2019/12/31 16:37:53;;;;;;;22.1;19.8;;;;;;;4.69;72.74805;975.1808;;;;
2019/12/31 16:40:18;;;;;;;21.9;19.6;;;;;;;4.55;73.79004;975.1827;;;;
2019/12/31 16:42:43;;;;;;;22.6;20.3;;;;;;;4.37;74.90527;975.195;;;;
2019/12/31 16:45:08;;;;;;;20.4;18.4;;;;;;;4.4;75.88574;975.1875;;;;
2019/12/31 16:47:33;;;;;;;21.6;19.3;;;;;;;4.26;76.69922;975.1863;;;;
2019/12/31 16:50:04;;;;;;;20.6;18.5;;;;;;;4.32;74.03418;975.1501;;;;
2019/12/31 16:52:24;;;;;;;20.9;18.8;;;;;;;4.19;75.75684;975.0957;;;;
2019/12/31 16:54:49;;;;;;;21;18.6;;;;;;;4.02;77.47363;975.0959;;;;
2019/12/31 16:57:15;;;;;;;21.8;19.4;;;;;;;4.13;75.54297;975.1945;;;;
2019/12/31 16:59:40;;;;;;;21.8;19.6;;;;;;;4.19;75.1123;975.2706;;;;
2019/12/31 17:02:05;;;;;;;22;19.6;;;;;;;4.02;77.43945;975.2636;;;;
2019/12/31 17:04:31;;;;;;;21.6;19.3;;;;;;;3.98;77.75977;975.3422;;;;
2019/12/31 17:06:56;;;;;;;22.3;20;;;;;;;3.95;77.16602;975.4152;;;;
2019/12/31 17:09:21;;;;;;;22;19.8;;;;;;;3.97;78.24609;975.4581;;;;
2019/12/31 17:11:46;;;;;;;22.3;20;;;;;;;3.96;78.00781;975.5126;;;;
2019/12/31 17:14:11;;;;;;;22.3;20;;;;;;;3.92;78.08984;975.435;;;;
2019/12/31 17:16:37;;;;;;;23.9;21.4;;;;;;;3.99;78.76074;975.3967;;;;
2019/12/31 17:19:02;;;;;;;24.3;21.8;;;;;;;3.86;78.49805;975.2994;;;;
2019/12/31 17:21:27;;;;;;;29.1;25.5;;;;;;;3.81;78.63574;975.1688;;;;
2019/12/31 17:23:52;;;;;;;65.2;54.1;;;;;;;3.82;78.53516;975.2161;;;;
2019/12/31 17:26:18;;;;;;;53.5;44.7;;;;;;;3.71;79.11523;975.3025;;;;
2019/12/31 17:28:43;;;;;;;40.3;34.6;;;;;;;3.77;79.11621;975.3956;;;;
2019/12/31 17:31:08;;;;;;;35.5;30.1;;;;;;;3.74;79.52832;975.3741;;;;
2019/12/31 17:33:34;;;;;;;35.5;31.3;;;;;;;3.75;79.48633;975.1656;;;;
2019/12/31 17:35:59;;;;;;;34.5;30.2;;;;;;;3.53;79.875;975.2363;;;;
2019/12/31 17:38:24;;;;;;;35;30.6;;;;;;;3.54;80.3291;975.2263;;;;
2019/12/31 17:40:49;;;;;;;38.9;33.2;;;;;;;3.51;80.62793;975.2531;;;;
2019/12/31 17:43:14;;;;;;;36.6;30.9;;;;;;;3.5;80.78711;975.2974;;;;
2019/12/31 17:45:39;;;;;;;31.9;28.4;;;;;;;3.41;81.00879;975.4431;;;;
2019/12/31 17:48:05;;;;;;;29.9;26.4;;;;;;;3.38;81.14746;975.5161;;;;
2019/12/31 17:50:30;;;;;;;34.6;29.2;;;;;;;3.42;81.71094;975.6024;;;;
2019/12/31 17:52:55;;;;;;;34.8;28.6;;;;;;;3.43;81.69141;975.6217;;;;
2019/12/31 17:55:20;;;;;;;39.2;32.1;;;;;;;3.57;80.3457;975.7191;;;;
2019/12/31 17:57:45;;;;;;;40.6;31.8;;;;;;;3.57;80.60742;975.7766;;;;
2019/12/31 18:00:10;;;;;;;37.4;30.7;;;;;;;3.5;81.40918;975.8024;;;;
2019/12/31 18:02:35;;;;;;;43.3;34.4;;;;;;;3.54;82.0166;975.7823;;;;
2019/12/31 18:05:01;;;;;;;41.4;33.6;;;;;;;3.59;81.2793;975.7871;;;;
2019/12/31 18:07:26;;;;;;;41.6;33.1;;;;;;;3.55;81.45313;975.8004;;;;
2019/12/31 18:09:51;;;;;;;43;34.8;;;;;;;3.63;81.6709;975.846;;;;
2019/12/31 18:12:16;;;;;;;38;32.6;;;;;;;3.64;80.83496;975.8959;;;;
2019/12/31 18:14:42;;;;;;;42.8;35.4;;;;;;;3.54;81.68945;975.9239;;;;
2019/12/31 18:17:07;;;;;;;38.5;33;;;;;;;3.61;81.22559;975.8964;;;;
2019/12/31 18:19:32;;;;;;;39.1;33.3;;;;;;;3.59;81.92676;975.8703;;;;
2019/12/31 18:21:57;;;;;;;40.8;34.3;;;;;;;3.66;81.34766;975.9443;;;;
2019/12/31 18:24:22;;;;;;;40.7;34.3;;;;;;;3.64;81.48047;975.9531;;;;
2019/12/31 18:26:47;;;;;;;39;34;;;;;;;3.7;81.29004;976.0287;;;;
2019/12/31 18:29:13;;;;;;;40;34.1;;;;;;;3.73;81.44238;976.1131;;;;
2019/12/31 18:31:38;;;;;;;42.9;36.5;;;;;;;3.65;82.06152;976.0333;;;;
2019/12/31 18:34:03;;;;;;;41;35.2;;;;;;;3.69;81.81738;975.9414;;;;
2019/12/31 18:36:29;;;;;;;43.4;36.1;;;;;;;3.66;82.17676;975.9817;;;;
2019/12/31 18:38:54;;;;;;;44.9;37.8;;;;;;;3.69;81.83008;976.0181;;;;
2019/12/31 18:41:19;;;;;;;44.4;36.5;;;;;;;3.7;81.12012;976.0422;;;;
2019/12/31 18:43:45;;;;;;;46;37.6;;;;;;;3.71;82.01465;976.087;;;;
2019/12/31 18:46:10;;;;;;;51.5;42.6;;;;;;;3.63;82.08008;976.1198;;;;
2019/12/31 18:48:35;;;;;;;52.9;44;;;;;;;3.63;82.51074;976.0778;;;;
2019/12/31 18:51:00;;;;;;;42.2;37.2;;;;;;;3.76;80.72266;976.1367;;;;